<?xml version="1.0" encoding="UTF-8" standalone="no" ?>
<gpx xmlns="http://www.topografix.com/GPX/1/1" xmlns:xsi="http://www.w3.org/2001/XMLSchema-instance" xsi:schemaLocation="http://www.topografix.com/GPX/1/1 http://www.topografix.com/GPX/1/1/gpx.xsd" version="1.1" creator="VisuGPX - https://www.visugpx.com">
  <metadata>
    <name>Talmont_PortBourgenay_8-14km</name>
    <desc><![CDATA[gnerando idor:6533347-7848784]]></desc>
  </metadata>
  <trk>
    <name><![CDATA[PortBourgenay_14.4km-6533347]]></name>
    <extensions>
      <line xmlns="http://www.topografix.com/GPX/gpx_style/0/2">
        <color>0000FF</color>
        <width>4</width>
      </line>
    </extensions>
    <trkseg>
      <trkpt lat="46.44043" lon="-1.67545">
        <ele>6</ele>
        <time>2023-11-14T05:07:52Z</time>
      </trkpt>
      <trkpt lat="46.44004" lon="-1.67485">
        <ele>6</ele>
        <time>2023-11-14T05:09:08Z</time>
      </trkpt>
      <trkpt lat="46.43963" lon="-1.6743">
        <ele>6</ele>
        <time>2023-11-14T05:10:22Z</time>
      </trkpt>
      <trkpt lat="46.43926" lon="-1.67421">
        <ele>4</ele>
        <time>2023-11-14T05:11:12Z</time>
      </trkpt>
      <trkpt lat="46.43909" lon="-1.67413">
        <ele>3</ele>
        <time>2023-11-14T05:11:36Z</time>
      </trkpt>
      <trkpt lat="46.43903" lon="-1.67388">
        <ele>4</ele>
        <time>2023-11-14T05:12:01Z</time>
      </trkpt>
      <trkpt lat="46.43914" lon="-1.67366">
        <ele>5</ele>
        <time>2023-11-14T05:12:26Z</time>
      </trkpt>
      <trkpt lat="46.43903" lon="-1.67344">
        <ele>6</ele>
        <time>2023-11-14T05:12:51Z</time>
      </trkpt>
      <trkpt lat="46.43887" lon="-1.67332">
        <ele>5</ele>
        <time>2023-11-14T05:13:15Z</time>
      </trkpt>
      <trkpt lat="46.43874" lon="-1.67312">
        <ele>6</ele>
        <time>2023-11-14T05:13:40Z</time>
      </trkpt>
      <trkpt lat="46.43867" lon="-1.67288">
        <ele>6</ele>
        <time>2023-11-14T05:14:04Z</time>
      </trkpt>
      <trkpt lat="46.43836" lon="-1.6726">
        <ele>6</ele>
        <time>2023-11-14T05:14:53Z</time>
      </trkpt>
      <trkpt lat="46.43822" lon="-1.67243">
        <ele>5</ele>
        <time>2023-11-14T05:15:17Z</time>
      </trkpt>
      <trkpt lat="46.43816" lon="-1.67218">
        <ele>5</ele>
        <time>2023-11-14T05:15:41Z</time>
      </trkpt>
      <trkpt lat="46.43815" lon="-1.67191">
        <ele>5</ele>
        <time>2023-11-14T05:16:06Z</time>
      </trkpt>
      <trkpt lat="46.43825" lon="-1.67112">
        <ele>8</ele>
        <time>2023-11-14T05:17:20Z</time>
      </trkpt>
      <trkpt lat="46.43825" lon="-1.67086">
        <ele>8</ele>
        <time>2023-11-14T05:17:44Z</time>
      </trkpt>
      <trkpt lat="46.43821" lon="-1.67033">
        <ele>8</ele>
        <time>2023-11-14T05:18:33Z</time>
      </trkpt>
      <trkpt lat="46.4381" lon="-1.67012">
        <ele>7</ele>
        <time>2023-11-14T05:18:57Z</time>
      </trkpt>
      <trkpt lat="46.43805" lon="-1.66986">
        <ele>6</ele>
        <time>2023-11-14T05:19:22Z</time>
      </trkpt>
      <trkpt lat="46.43806" lon="-1.66958">
        <ele>7</ele>
        <time>2023-11-14T05:19:48Z</time>
      </trkpt>
      <trkpt lat="46.43801" lon="-1.66932">
        <ele>6</ele>
        <time>2023-11-14T05:20:13Z</time>
      </trkpt>
      <trkpt lat="46.438" lon="-1.66878">
        <ele>6</ele>
        <time>2023-11-14T05:21:02Z</time>
      </trkpt>
      <trkpt lat="46.43817" lon="-1.6683">
        <ele>7</ele>
        <time>2023-11-14T05:21:52Z</time>
      </trkpt>
      <trkpt lat="46.43823" lon="-1.66778">
        <ele>8</ele>
        <time>2023-11-14T05:22:40Z</time>
      </trkpt>
      <trkpt lat="46.43817" lon="-1.66753">
        <ele>7</ele>
        <time>2023-11-14T05:23:05Z</time>
      </trkpt>
      <trkpt lat="46.43799" lon="-1.66707">
        <ele>7</ele>
        <time>2023-11-14T05:23:53Z</time>
      </trkpt>
      <trkpt lat="46.43774" lon="-1.66667">
        <ele>5</ele>
        <time>2023-11-14T05:24:43Z</time>
      </trkpt>
      <trkpt lat="46.43763" lon="-1.66645">
        <ele>4</ele>
        <time>2023-11-14T05:25:08Z</time>
      </trkpt>
      <trkpt lat="46.43749" lon="-1.66629">
        <ele>4</ele>
        <time>2023-11-14T05:25:32Z</time>
      </trkpt>
      <trkpt lat="46.43738" lon="-1.66607">
        <ele>4</ele>
        <time>2023-11-14T05:25:57Z</time>
      </trkpt>
      <trkpt lat="46.43724" lon="-1.66588">
        <ele>5</ele>
        <time>2023-11-14T05:26:22Z</time>
      </trkpt>
      <trkpt lat="46.43719" lon="-1.66563">
        <ele>5</ele>
        <time>2023-11-14T05:26:46Z</time>
      </trkpt>
      <trkpt lat="46.43709" lon="-1.6654">
        <ele>5</ele>
        <time>2023-11-14T05:27:11Z</time>
      </trkpt>
      <trkpt lat="46.43691" lon="-1.66533">
        <ele>4</ele>
        <time>2023-11-14T05:27:36Z</time>
      </trkpt>
      <trkpt lat="46.43677" lon="-1.66517">
        <ele>4</ele>
        <time>2023-11-14T05:28:00Z</time>
      </trkpt>
      <trkpt lat="46.43658" lon="-1.66518">
        <ele>3</ele>
        <time>2023-11-14T05:28:25Z</time>
      </trkpt>
      <trkpt lat="46.43642" lon="-1.66505">
        <ele>3</ele>
        <time>2023-11-14T05:28:50Z</time>
      </trkpt>
      <trkpt lat="46.43637" lon="-1.66452">
        <ele>5</ele>
        <time>2023-11-14T05:29:39Z</time>
      </trkpt>
      <trkpt lat="46.43624" lon="-1.66434">
        <ele>5</ele>
        <time>2023-11-14T05:30:03Z</time>
      </trkpt>
      <trkpt lat="46.43608" lon="-1.66418">
        <ele>4</ele>
        <time>2023-11-14T05:30:29Z</time>
      </trkpt>
      <trkpt lat="46.43591" lon="-1.66408">
        <ele>4</ele>
        <time>2023-11-14T05:30:54Z</time>
      </trkpt>
      <trkpt lat="46.43564" lon="-1.6637">
        <ele>6</ele>
        <time>2023-11-14T05:31:44Z</time>
      </trkpt>
      <trkpt lat="46.43531" lon="-1.66349">
        <ele>5</ele>
        <time>2023-11-14T05:32:32Z</time>
      </trkpt>
      <trkpt lat="46.43521" lon="-1.66327">
        <ele>5</ele>
        <time>2023-11-14T05:32:56Z</time>
      </trkpt>
      <trkpt lat="46.43508" lon="-1.66277">
        <ele>6</ele>
        <time>2023-11-14T05:33:45Z</time>
      </trkpt>
      <trkpt lat="46.43496" lon="-1.66256">
        <ele>6</ele>
        <time>2023-11-14T05:34:10Z</time>
      </trkpt>
      <trkpt lat="46.43488" lon="-1.6623">
        <ele>6</ele>
        <time>2023-11-14T05:34:36Z</time>
      </trkpt>
      <trkpt lat="46.43484" lon="-1.66203">
        <ele>6</ele>
        <time>2023-11-14T05:35:02Z</time>
      </trkpt>
      <trkpt lat="46.43467" lon="-1.66155">
        <ele>6</ele>
        <time>2023-11-14T05:35:51Z</time>
      </trkpt>
      <trkpt lat="46.43451" lon="-1.66078">
        <ele>6</ele>
        <time>2023-11-14T05:37:05Z</time>
      </trkpt>
      <trkpt lat="46.43453" lon="-1.66025">
        <ele>6</ele>
        <time>2023-11-14T05:37:54Z</time>
      </trkpt>
      <trkpt lat="46.43442" lon="-1.65974">
        <ele>5</ele>
        <time>2023-11-14T05:38:43Z</time>
      </trkpt>
      <trkpt lat="46.43443" lon="-1.65947">
        <ele>5</ele>
        <time>2023-11-14T05:39:08Z</time>
      </trkpt>
      <trkpt lat="46.4344" lon="-1.65894">
        <ele>5</ele>
        <time>2023-11-14T05:39:57Z</time>
      </trkpt>
      <trkpt lat="46.4343" lon="-1.65843">
        <ele>6</ele>
        <time>2023-11-14T05:40:46Z</time>
      </trkpt>
      <trkpt lat="46.43449" lon="-1.65837">
        <ele>7</ele>
        <time>2023-11-14T05:41:12Z</time>
      </trkpt>
      <trkpt lat="46.43412" lon="-1.6584">
        <ele>5</ele>
        <time>2023-11-14T05:42:01Z</time>
      </trkpt>
      <trkpt lat="46.4343" lon="-1.65837">
        <ele>6</ele>
        <time>2023-11-14T05:42:26Z</time>
      </trkpt>
      <trkpt lat="46.43413" lon="-1.65829">
        <ele>6</ele>
        <time>2023-11-14T05:42:49Z</time>
      </trkpt>
      <trkpt lat="46.4343" lon="-1.65836">
        <ele>6</ele>
        <time>2023-11-14T05:43:13Z</time>
      </trkpt>
      <trkpt lat="46.43448" lon="-1.65832">
        <ele>7</ele>
        <time>2023-11-14T05:43:37Z</time>
      </trkpt>
      <trkpt lat="46.43467" lon="-1.65836">
        <ele>8</ele>
        <time>2023-11-14T05:44:03Z</time>
      </trkpt>
      <trkpt lat="46.43484" lon="-1.65846">
        <ele>8</ele>
        <time>2023-11-14T05:44:27Z</time>
      </trkpt>
      <trkpt lat="46.43519" lon="-1.6586">
        <ele>10</ele>
        <time>2023-11-14T05:45:16Z</time>
      </trkpt>
      <trkpt lat="46.43537" lon="-1.65871">
        <ele>12</ele>
        <time>2023-11-14T05:45:42Z</time>
      </trkpt>
      <trkpt lat="46.43555" lon="-1.65873">
        <ele>13</ele>
        <time>2023-11-14T05:46:06Z</time>
      </trkpt>
      <trkpt lat="46.43571" lon="-1.65884">
        <ele>14</ele>
        <time>2023-11-14T05:46:30Z</time>
      </trkpt>
      <trkpt lat="46.43589" lon="-1.65875">
        <ele>15</ele>
        <time>2023-11-14T05:46:55Z</time>
      </trkpt>
      <trkpt lat="46.43604" lon="-1.65889">
        <ele>16</ele>
        <time>2023-11-14T05:47:19Z</time>
      </trkpt>
      <trkpt lat="46.43622" lon="-1.65895">
        <ele>16</ele>
        <time>2023-11-14T05:47:43Z</time>
      </trkpt>
      <trkpt lat="46.43641" lon="-1.65891">
        <ele>17</ele>
        <time>2023-11-14T05:48:09Z</time>
      </trkpt>
      <trkpt lat="46.43659" lon="-1.65884">
        <ele>18</ele>
        <time>2023-11-14T05:48:34Z</time>
      </trkpt>
      <trkpt lat="46.43678" lon="-1.65883">
        <ele>18</ele>
        <time>2023-11-14T05:48:59Z</time>
      </trkpt>
      <trkpt lat="46.43714" lon="-1.6589">
        <ele>18</ele>
        <time>2023-11-14T05:49:48Z</time>
      </trkpt>
      <trkpt lat="46.43749" lon="-1.65911">
        <ele>17</ele>
        <time>2023-11-14T05:50:38Z</time>
      </trkpt>
      <trkpt lat="46.43767" lon="-1.65909">
        <ele>17</ele>
        <time>2023-11-14T05:51:02Z</time>
      </trkpt>
      <trkpt lat="46.43783" lon="-1.65923">
        <ele>17</ele>
        <time>2023-11-14T05:51:27Z</time>
      </trkpt>
      <trkpt lat="46.438" lon="-1.65933">
        <ele>17</ele>
        <time>2023-11-14T05:51:52Z</time>
      </trkpt>
      <trkpt lat="46.43847" lon="-1.65979">
        <ele>15</ele>
        <time>2023-11-14T05:53:07Z</time>
      </trkpt>
      <trkpt lat="46.43903" lon="-1.66051">
        <ele>18</ele>
        <time>2023-11-14T05:54:47Z</time>
      </trkpt>
      <trkpt lat="46.4394" lon="-1.66111">
        <ele>17</ele>
        <time>2023-11-14T05:56:01Z</time>
      </trkpt>
      <trkpt lat="46.43949" lon="-1.66136">
        <ele>16</ele>
        <time>2023-11-14T05:56:27Z</time>
      </trkpt>
      <trkpt lat="46.43972" lon="-1.66178">
        <ele>15</ele>
        <time>2023-11-14T05:57:17Z</time>
      </trkpt>
      <trkpt lat="46.43979" lon="-1.66203">
        <ele>14</ele>
        <time>2023-11-14T05:57:41Z</time>
      </trkpt>
      <trkpt lat="46.43989" lon="-1.66225">
        <ele>13</ele>
        <time>2023-11-14T05:58:06Z</time>
      </trkpt>
      <trkpt lat="46.44" lon="-1.66202">
        <ele>14</ele>
        <time>2023-11-14T05:58:31Z</time>
      </trkpt>
      <trkpt lat="46.44035" lon="-1.6605">
        <ele>14</ele>
        <time>2023-11-14T06:00:59Z</time>
      </trkpt>
      <trkpt lat="46.44037" lon="-1.65997">
        <ele>14</ele>
        <time>2023-11-14T06:01:48Z</time>
      </trkpt>
      <trkpt lat="46.44035" lon="-1.6597">
        <ele>14</ele>
        <time>2023-11-14T06:02:13Z</time>
      </trkpt>
      <trkpt lat="46.44032" lon="-1.65944">
        <ele>14</ele>
        <time>2023-11-14T06:02:37Z</time>
      </trkpt>
      <trkpt lat="46.44018" lon="-1.65893">
        <ele>16</ele>
        <time>2023-11-14T06:03:27Z</time>
      </trkpt>
      <trkpt lat="46.44015" lon="-1.65867">
        <ele>16</ele>
        <time>2023-11-14T06:03:52Z</time>
      </trkpt>
      <trkpt lat="46.44017" lon="-1.6584">
        <ele>15</ele>
        <time>2023-11-14T06:04:17Z</time>
      </trkpt>
      <trkpt lat="46.44015" lon="-1.65786">
        <ele>15</ele>
        <time>2023-11-14T06:05:06Z</time>
      </trkpt>
      <trkpt lat="46.44007" lon="-1.65705">
        <ele>15</ele>
        <time>2023-11-14T06:06:22Z</time>
      </trkpt>
      <trkpt lat="46.44009" lon="-1.65651">
        <ele>15</ele>
        <time>2023-11-14T06:07:11Z</time>
      </trkpt>
      <trkpt lat="46.44005" lon="-1.65625">
        <ele>16</ele>
        <time>2023-11-14T06:07:36Z</time>
      </trkpt>
      <trkpt lat="46.44017" lon="-1.6541">
        <ele>16</ele>
        <time>2023-11-14T06:10:54Z</time>
      </trkpt>
      <trkpt lat="46.44025" lon="-1.65385">
        <ele>15</ele>
        <time>2023-11-14T06:11:19Z</time>
      </trkpt>
      <trkpt lat="46.44025" lon="-1.65357">
        <ele>14</ele>
        <time>2023-11-14T06:11:45Z</time>
      </trkpt>
      <trkpt lat="46.44019" lon="-1.65332">
        <ele>15</ele>
        <time>2023-11-14T06:12:10Z</time>
      </trkpt>
      <trkpt lat="46.44027" lon="-1.65278">
        <ele>13</ele>
        <time>2023-11-14T06:13:00Z</time>
      </trkpt>
      <trkpt lat="46.44033" lon="-1.65253">
        <ele>11</ele>
        <time>2023-11-14T06:13:25Z</time>
      </trkpt>
      <trkpt lat="46.44051" lon="-1.65255">
        <ele>9</ele>
        <time>2023-11-14T06:13:49Z</time>
      </trkpt>
      <trkpt lat="46.44069" lon="-1.65247">
        <ele>6</ele>
        <time>2023-11-14T06:14:14Z</time>
      </trkpt>
      <trkpt lat="46.44103" lon="-1.65224">
        <ele>3</ele>
        <time>2023-11-14T06:15:04Z</time>
      </trkpt>
      <trkpt lat="46.44133" lon="-1.65195">
        <ele>1</ele>
        <time>2023-11-14T06:15:52Z</time>
      </trkpt>
      <trkpt lat="46.4415" lon="-1.65184">
        <ele>2.4</ele>
        <time>2023-11-14T06:16:17Z</time>
      </trkpt>
      <trkpt lat="46.44213" lon="-1.65129">
        <ele>1</ele>
        <time>2023-11-14T06:17:55Z</time>
      </trkpt>
      <trkpt lat="46.44226" lon="-1.65111">
        <ele>1</ele>
        <time>2023-11-14T06:18:19Z</time>
      </trkpt>
      <trkpt lat="46.44237" lon="-1.65089">
        <ele>2</ele>
        <time>2023-11-14T06:18:44Z</time>
      </trkpt>
      <trkpt lat="46.44251" lon="-1.65072">
        <ele>2</ele>
        <time>2023-11-14T06:19:08Z</time>
      </trkpt>
      <trkpt lat="46.44262" lon="-1.65021">
        <ele>2</ele>
        <time>2023-11-14T06:19:57Z</time>
      </trkpt>
      <trkpt lat="46.443" lon="-1.64925">
        <ele>3</ele>
        <time>2023-11-14T06:21:39Z</time>
      </trkpt>
      <trkpt lat="46.4431" lon="-1.64873">
        <ele>2</ele>
        <time>2023-11-14T06:22:29Z</time>
      </trkpt>
      <trkpt lat="46.44311" lon="-1.64846">
        <ele>2</ele>
        <time>2023-11-14T06:22:54Z</time>
      </trkpt>
      <trkpt lat="46.44309" lon="-1.6482">
        <ele>1</ele>
        <time>2023-11-14T06:23:18Z</time>
      </trkpt>
      <trkpt lat="46.44323" lon="-1.64803">
        <ele>1</ele>
        <time>2023-11-14T06:23:42Z</time>
      </trkpt>
      <trkpt lat="46.44396" lon="-1.64823">
        <ele>2</ele>
        <time>2023-11-14T06:25:21Z</time>
      </trkpt>
      <trkpt lat="46.44504" lon="-1.64863">
        <ele>4</ele>
        <time>2023-11-14T06:27:50Z</time>
      </trkpt>
      <trkpt lat="46.44543" lon="-1.64864">
        <ele>4</ele>
        <time>2023-11-14T06:28:42Z</time>
      </trkpt>
      <trkpt lat="46.44561" lon="-1.6486">
        <ele>3</ele>
        <time>2023-11-14T06:29:06Z</time>
      </trkpt>
      <trkpt lat="46.4458" lon="-1.64859">
        <ele>3</ele>
        <time>2023-11-14T06:29:32Z</time>
      </trkpt>
      <trkpt lat="46.44598" lon="-1.64854">
        <ele>3</ele>
        <time>2023-11-14T06:29:56Z</time>
      </trkpt>
      <trkpt lat="46.44635" lon="-1.64858">
        <ele>2</ele>
        <time>2023-11-14T06:30:46Z</time>
      </trkpt>
      <trkpt lat="46.44654" lon="-1.64856">
        <ele>2</ele>
        <time>2023-11-14T06:31:11Z</time>
      </trkpt>
      <trkpt lat="46.44666" lon="-1.64836">
        <ele>1</ele>
        <time>2023-11-14T06:31:36Z</time>
      </trkpt>
      <trkpt lat="46.44638" lon="-1.648">
        <ele>2</ele>
        <time>2023-11-14T06:32:25Z</time>
      </trkpt>
      <trkpt lat="46.44613" lon="-1.64759">
        <ele>2</ele>
        <time>2023-11-14T06:33:16Z</time>
      </trkpt>
      <trkpt lat="46.44592" lon="-1.64713">
        <ele>2</ele>
        <time>2023-11-14T06:34:07Z</time>
      </trkpt>
      <trkpt lat="46.44587" lon="-1.64687">
        <ele>3</ele>
        <time>2023-11-14T06:34:31Z</time>
      </trkpt>
      <trkpt lat="46.44584" lon="-1.64633">
        <ele>3</ele>
        <time>2023-11-14T06:35:21Z</time>
      </trkpt>
      <trkpt lat="46.44594" lon="-1.64715">
        <ele>2</ele>
        <time>2023-11-14T06:36:38Z</time>
      </trkpt>
      <trkpt lat="46.44603" lon="-1.64738">
        <ele>2</ele>
        <time>2023-11-14T06:37:02Z</time>
      </trkpt>
      <trkpt lat="46.44625" lon="-1.64779">
        <ele>2</ele>
        <time>2023-11-14T06:37:50Z</time>
      </trkpt>
      <trkpt lat="46.44653" lon="-1.64819">
        <ele>1</ele>
        <time>2023-11-14T06:38:42Z</time>
      </trkpt>
      <trkpt lat="46.44638" lon="-1.64803">
        <ele>2</ele>
        <time>2023-11-14T06:39:07Z</time>
      </trkpt>
      <trkpt lat="46.44593" lon="-1.64718">
        <ele>2</ele>
        <time>2023-11-14T06:40:46Z</time>
      </trkpt>
      <trkpt lat="46.44588" lon="-1.64692">
        <ele>3</ele>
        <time>2023-11-14T06:41:11Z</time>
      </trkpt>
      <trkpt lat="46.44585" lon="-1.64638">
        <ele>3</ele>
        <time>2023-11-14T06:42:00Z</time>
      </trkpt>
      <trkpt lat="46.44589" lon="-1.64612">
        <ele>3</ele>
        <time>2023-11-14T06:42:25Z</time>
      </trkpt>
      <trkpt lat="46.44598" lon="-1.64589">
        <ele>3</ele>
        <time>2023-11-14T06:42:49Z</time>
      </trkpt>
      <trkpt lat="46.44609" lon="-1.64482">
        <ele>2</ele>
        <time>2023-11-14T06:44:29Z</time>
      </trkpt>
      <trkpt lat="46.4463" lon="-1.64437">
        <ele>3</ele>
        <time>2023-11-14T06:45:19Z</time>
      </trkpt>
      <trkpt lat="46.44648" lon="-1.64446">
        <ele>3</ele>
        <time>2023-11-14T06:45:44Z</time>
      </trkpt>
      <trkpt lat="46.44666" lon="-1.64447">
        <ele>3</ele>
        <time>2023-11-14T06:46:08Z</time>
      </trkpt>
      <trkpt lat="46.44674" lon="-1.64421">
        <ele>4</ele>
        <time>2023-11-14T06:46:34Z</time>
      </trkpt>
      <trkpt lat="46.44671" lon="-1.64207">
        <ele>8</ele>
        <time>2023-11-14T06:49:51Z</time>
      </trkpt>
      <trkpt lat="46.44673" lon="-1.6418">
        <ele>9</ele>
        <time>2023-11-14T06:50:16Z</time>
      </trkpt>
      <trkpt lat="46.44691" lon="-1.64174">
        <ele>9</ele>
        <time>2023-11-14T06:50:41Z</time>
      </trkpt>
      <trkpt lat="46.44673" lon="-1.64179">
        <ele>9</ele>
        <time>2023-11-14T06:51:05Z</time>
      </trkpt>
      <trkpt lat="46.44676" lon="-1.64297">
        <ele>7</ele>
        <time>2023-11-14T06:52:54Z</time>
      </trkpt>
      <trkpt lat="46.44672" lon="-1.64324">
        <ele>7</ele>
        <time>2023-11-14T06:53:19Z</time>
      </trkpt>
      <trkpt lat="46.44677" lon="-1.6435">
        <ele>6</ele>
        <time>2023-11-14T06:53:44Z</time>
      </trkpt>
      <trkpt lat="46.44675" lon="-1.64377">
        <ele>5</ele>
        <time>2023-11-14T06:54:09Z</time>
      </trkpt>
      <trkpt lat="46.44678" lon="-1.64431">
        <ele>4</ele>
        <time>2023-11-14T06:54:59Z</time>
      </trkpt>
      <trkpt lat="46.44664" lon="-1.64448">
        <ele>3</ele>
        <time>2023-11-14T06:55:23Z</time>
      </trkpt>
      <trkpt lat="46.44646" lon="-1.64444">
        <ele>3</ele>
        <time>2023-11-14T06:55:47Z</time>
      </trkpt>
      <trkpt lat="46.44629" lon="-1.64436">
        <ele>3</ele>
        <time>2023-11-14T06:56:11Z</time>
      </trkpt>
      <trkpt lat="46.4461" lon="-1.64482">
        <ele>2</ele>
        <time>2023-11-14T06:57:01Z</time>
      </trkpt>
      <trkpt lat="46.44606" lon="-1.64509">
        <ele>2</ele>
        <time>2023-11-14T06:57:26Z</time>
      </trkpt>
      <trkpt lat="46.44603" lon="-1.64563">
        <ele>2</ele>
        <time>2023-11-14T06:58:16Z</time>
      </trkpt>
      <trkpt lat="46.4459" lon="-1.64614">
        <ele>3</ele>
        <time>2023-11-14T06:59:06Z</time>
      </trkpt>
      <trkpt lat="46.44588" lon="-1.6464">
        <ele>3</ele>
        <time>2023-11-14T06:59:30Z</time>
      </trkpt>
      <trkpt lat="46.44591" lon="-1.64694">
        <ele>3</ele>
        <time>2023-11-14T07:00:20Z</time>
      </trkpt>
      <trkpt lat="46.44597" lon="-1.64719">
        <ele>2</ele>
        <time>2023-11-14T07:00:44Z</time>
      </trkpt>
      <trkpt lat="46.44607" lon="-1.64741">
        <ele>2</ele>
        <time>2023-11-14T07:01:08Z</time>
      </trkpt>
      <trkpt lat="46.44643" lon="-1.64802">
        <ele>1</ele>
        <time>2023-11-14T07:02:22Z</time>
      </trkpt>
      <trkpt lat="46.44672" lon="-1.64835">
        <ele>1</ele>
        <time>2023-11-14T07:03:11Z</time>
      </trkpt>
      <trkpt lat="46.44708" lon="-1.64846">
        <ele>1</ele>
        <time>2023-11-14T07:04:00Z</time>
      </trkpt>
      <trkpt lat="46.44746" lon="-1.6485">
        <ele>1</ele>
        <time>2023-11-14T07:04:51Z</time>
      </trkpt>
      <trkpt lat="46.44764" lon="-1.64859">
        <ele>2</ele>
        <time>2023-11-14T07:05:17Z</time>
      </trkpt>
      <trkpt lat="46.44786" lon="-1.64904">
        <ele>2</ele>
        <time>2023-11-14T07:06:07Z</time>
      </trkpt>
      <trkpt lat="46.44811" lon="-1.64944">
        <ele>3</ele>
        <time>2023-11-14T07:06:57Z</time>
      </trkpt>
      <trkpt lat="46.44829" lon="-1.64951">
        <ele>2</ele>
        <time>2023-11-14T07:07:22Z</time>
      </trkpt>
      <trkpt lat="46.44847" lon="-1.64952">
        <ele>2</ele>
        <time>2023-11-14T07:07:46Z</time>
      </trkpt>
      <trkpt lat="46.44865" lon="-1.6496">
        <ele>2</ele>
        <time>2023-11-14T07:08:11Z</time>
      </trkpt>
      <trkpt lat="46.44881" lon="-1.64973">
        <ele>2</ele>
        <time>2023-11-14T07:08:35Z</time>
      </trkpt>
      <trkpt lat="46.44896" lon="-1.6499">
        <ele>2</ele>
        <time>2023-11-14T07:09:01Z</time>
      </trkpt>
      <trkpt lat="46.4492" lon="-1.65031">
        <ele>3</ele>
        <time>2023-11-14T07:09:50Z</time>
      </trkpt>
      <trkpt lat="46.44928" lon="-1.65055">
        <ele>3</ele>
        <time>2023-11-14T07:10:15Z</time>
      </trkpt>
      <trkpt lat="46.4495" lon="-1.65098">
        <ele>3</ele>
        <time>2023-11-14T07:11:04Z</time>
      </trkpt>
      <trkpt lat="46.44996" lon="-1.65144">
        <ele>3</ele>
        <time>2023-11-14T07:12:19Z</time>
      </trkpt>
      <trkpt lat="46.4501" lon="-1.65161">
        <ele>3</ele>
        <time>2023-11-14T07:12:43Z</time>
      </trkpt>
      <trkpt lat="46.45025" lon="-1.65209">
        <ele>4</ele>
        <time>2023-11-14T07:13:31Z</time>
      </trkpt>
      <trkpt lat="46.45036" lon="-1.65231">
        <ele>4</ele>
        <time>2023-11-14T07:13:56Z</time>
      </trkpt>
      <trkpt lat="46.45072" lon="-1.65293">
        <ele>5</ele>
        <time>2023-11-14T07:15:11Z</time>
      </trkpt>
      <trkpt lat="46.45087" lon="-1.65307">
        <ele>5</ele>
        <time>2023-11-14T07:15:35Z</time>
      </trkpt>
      <trkpt lat="46.45091" lon="-1.65333">
        <ele>6</ele>
        <time>2023-11-14T07:15:59Z</time>
      </trkpt>
      <trkpt lat="46.45107" lon="-1.65382">
        <ele>7</ele>
        <time>2023-11-14T07:16:49Z</time>
      </trkpt>
      <trkpt lat="46.45111" lon="-1.65407">
        <ele>7</ele>
        <time>2023-11-14T07:17:13Z</time>
      </trkpt>
      <trkpt lat="46.45115" lon="-1.65515">
        <ele>9</ele>
        <time>2023-11-14T07:18:52Z</time>
      </trkpt>
      <trkpt lat="46.4512" lon="-1.65568">
        <ele>10</ele>
        <time>2023-11-14T07:19:41Z</time>
      </trkpt>
      <trkpt lat="46.45109" lon="-1.6559">
        <ele>11</ele>
        <time>2023-11-14T07:20:06Z</time>
      </trkpt>
      <trkpt lat="46.45093" lon="-1.65602">
        <ele>11</ele>
        <time>2023-11-14T07:20:30Z</time>
      </trkpt>
      <trkpt lat="46.45039" lon="-1.65618">
        <ele>11</ele>
        <time>2023-11-14T07:21:44Z</time>
      </trkpt>
      <trkpt lat="46.45021" lon="-1.65627">
        <ele>11</ele>
        <time>2023-11-14T07:22:09Z</time>
      </trkpt>
      <trkpt lat="46.44993" lon="-1.65661">
        <ele>11</ele>
        <time>2023-11-14T07:22:58Z</time>
      </trkpt>
      <trkpt lat="46.44955" lon="-1.65669">
        <ele>11</ele>
        <time>2023-11-14T07:23:49Z</time>
      </trkpt>
      <trkpt lat="46.44939" lon="-1.6568">
        <ele>11</ele>
        <time>2023-11-14T07:24:13Z</time>
      </trkpt>
      <trkpt lat="46.44927" lon="-1.65701">
        <ele>10</ele>
        <time>2023-11-14T07:24:38Z</time>
      </trkpt>
      <trkpt lat="46.44904" lon="-1.65773">
        <ele>8</ele>
        <time>2023-11-14T07:25:51Z</time>
      </trkpt>
      <trkpt lat="46.44905" lon="-1.65827">
        <ele>8</ele>
        <time>2023-11-14T07:26:41Z</time>
      </trkpt>
      <trkpt lat="46.44902" lon="-1.6588">
        <ele>7</ele>
        <time>2023-11-14T07:27:29Z</time>
      </trkpt>
      <trkpt lat="46.44912" lon="-1.65986">
        <ele>6</ele>
        <time>2023-11-14T07:29:08Z</time>
      </trkpt>
      <trkpt lat="46.44909" lon="-1.66013">
        <ele>5</ele>
        <time>2023-11-14T07:29:33Z</time>
      </trkpt>
      <trkpt lat="46.44903" lon="-1.66038">
        <ele>5</ele>
        <time>2023-11-14T07:29:57Z</time>
      </trkpt>
      <trkpt lat="46.44863" lon="-1.66093">
        <ele>3</ele>
        <time>2023-11-14T07:31:11Z</time>
      </trkpt>
      <trkpt lat="46.44876" lon="-1.66113">
        <ele>3</ele>
        <time>2023-11-14T07:31:36Z</time>
      </trkpt>
      <trkpt lat="46.44892" lon="-1.66125">
        <ele>3</ele>
        <time>2023-11-14T07:32:00Z</time>
      </trkpt>
      <trkpt lat="46.44911" lon="-1.66129">
        <ele>2</ele>
        <time>2023-11-14T07:32:26Z</time>
      </trkpt>
      <trkpt lat="46.44929" lon="-1.66136">
        <ele>3</ele>
        <time>2023-11-14T07:32:51Z</time>
      </trkpt>
      <trkpt lat="46.44945" lon="-1.66147">
        <ele>3</ele>
        <time>2023-11-14T07:33:14Z</time>
      </trkpt>
      <trkpt lat="46.44957" lon="-1.66168">
        <ele>2</ele>
        <time>2023-11-14T07:33:39Z</time>
      </trkpt>
      <trkpt lat="46.4496" lon="-1.66194">
        <ele>2</ele>
        <time>2023-11-14T07:34:04Z</time>
      </trkpt>
      <trkpt lat="46.44966" lon="-1.66219">
        <ele>2</ele>
        <time>2023-11-14T07:34:28Z</time>
      </trkpt>
      <trkpt lat="46.4498" lon="-1.66236">
        <ele>2</ele>
        <time>2023-11-14T07:34:52Z</time>
      </trkpt>
      <trkpt lat="46.44996" lon="-1.6625">
        <ele>2</ele>
        <time>2023-11-14T07:35:17Z</time>
      </trkpt>
      <trkpt lat="46.45006" lon="-1.66302">
        <ele>4</ele>
        <time>2023-11-14T07:36:07Z</time>
      </trkpt>
      <trkpt lat="46.45014" lon="-1.66327">
        <ele>6</ele>
        <time>2023-11-14T07:36:32Z</time>
      </trkpt>
      <trkpt lat="46.45015" lon="-1.66353">
        <ele>7</ele>
        <time>2023-11-14T07:36:56Z</time>
      </trkpt>
      <trkpt lat="46.45033" lon="-1.66401">
        <ele>8</ele>
        <time>2023-11-14T07:37:46Z</time>
      </trkpt>
      <trkpt lat="46.45085" lon="-1.66513">
        <ele>12</ele>
        <time>2023-11-14T07:39:51Z</time>
      </trkpt>
      <trkpt lat="46.45092" lon="-1.66537">
        <ele>13</ele>
        <time>2023-11-14T07:40:15Z</time>
      </trkpt>
      <trkpt lat="46.45121" lon="-1.66605">
        <ele>14</ele>
        <time>2023-11-14T07:41:28Z</time>
      </trkpt>
      <trkpt lat="46.45157" lon="-1.66729">
        <ele>15</ele>
        <time>2023-11-14T07:43:32Z</time>
      </trkpt>
      <trkpt lat="46.45166" lon="-1.66753">
        <ele>15</ele>
        <time>2023-11-14T07:43:57Z</time>
      </trkpt>
      <trkpt lat="46.45219" lon="-1.66864">
        <ele>15</ele>
        <time>2023-11-14T07:46:01Z</time>
      </trkpt>
      <trkpt lat="46.45241" lon="-1.66967">
        <ele>16</ele>
        <time>2023-11-14T07:47:40Z</time>
      </trkpt>
      <trkpt lat="46.45245" lon="-1.6702">
        <ele>17</ele>
        <time>2023-11-14T07:48:29Z</time>
      </trkpt>
      <trkpt lat="46.45242" lon="-1.67046">
        <ele>17</ele>
        <time>2023-11-14T07:48:54Z</time>
      </trkpt>
      <trkpt lat="46.45245" lon="-1.671">
        <ele>18</ele>
        <time>2023-11-14T07:49:43Z</time>
      </trkpt>
      <trkpt lat="46.45238" lon="-1.67124">
        <ele>18</ele>
        <time>2023-11-14T07:50:07Z</time>
      </trkpt>
      <trkpt lat="46.45241" lon="-1.67151">
        <ele>18</ele>
        <time>2023-11-14T07:50:32Z</time>
      </trkpt>
      <trkpt lat="46.45231" lon="-1.6734">
        <ele>20</ele>
        <time>2023-11-14T07:53:27Z</time>
      </trkpt>
      <trkpt lat="46.45232" lon="-1.67394">
        <ele>21</ele>
        <time>2023-11-14T07:54:16Z</time>
      </trkpt>
      <trkpt lat="46.45262" lon="-1.67522">
        <ele>22</ele>
        <time>2023-11-14T07:56:21Z</time>
      </trkpt>
      <trkpt lat="46.45277" lon="-1.67598">
        <ele>22</ele>
        <time>2023-11-14T07:57:33Z</time>
      </trkpt>
      <trkpt lat="46.4528" lon="-1.67625">
        <ele>23</ele>
        <time>2023-11-14T07:57:58Z</time>
      </trkpt>
      <trkpt lat="46.45291" lon="-1.67647">
        <ele>23</ele>
        <time>2023-11-14T07:58:23Z</time>
      </trkpt>
      <trkpt lat="46.45295" lon="-1.67673">
        <ele>22</ele>
        <time>2023-11-14T07:58:48Z</time>
      </trkpt>
      <trkpt lat="46.4529" lon="-1.67699">
        <ele>23</ele>
        <time>2023-11-14T07:59:13Z</time>
      </trkpt>
      <trkpt lat="46.45286" lon="-1.6778">
        <ele>23</ele>
        <time>2023-11-14T08:00:27Z</time>
      </trkpt>
      <trkpt lat="46.45282" lon="-1.67807">
        <ele>22</ele>
        <time>2023-11-14T08:00:53Z</time>
      </trkpt>
      <trkpt lat="46.45282" lon="-1.67834">
        <ele>22</ele>
        <time>2023-11-14T08:01:18Z</time>
      </trkpt>
      <trkpt lat="46.45275" lon="-1.67887">
        <ele>22</ele>
        <time>2023-11-14T08:02:07Z</time>
      </trkpt>
      <trkpt lat="46.45273" lon="-1.6794">
        <ele>22</ele>
        <time>2023-11-14T08:02:56Z</time>
      </trkpt>
      <trkpt lat="46.45259" lon="-1.68126">
        <ele>23</ele>
        <time>2023-11-14T08:05:48Z</time>
      </trkpt>
      <trkpt lat="46.45247" lon="-1.68231">
        <ele>23</ele>
        <time>2023-11-14T08:07:26Z</time>
      </trkpt>
      <trkpt lat="46.45245" lon="-1.68259">
        <ele>23</ele>
        <time>2023-11-14T08:07:52Z</time>
      </trkpt>
      <trkpt lat="46.45247" lon="-1.68313">
        <ele>22</ele>
        <time>2023-11-14T08:08:42Z</time>
      </trkpt>
      <trkpt lat="46.4525" lon="-1.68339">
        <ele>22</ele>
        <time>2023-11-14T08:09:06Z</time>
      </trkpt>
      <trkpt lat="46.45294" lon="-1.68544">
        <ele>20</ele>
        <time>2023-11-14T08:12:23Z</time>
      </trkpt>
      <trkpt lat="46.45321" lon="-1.68615">
        <ele>19</ele>
        <time>2023-11-14T08:13:38Z</time>
      </trkpt>
      <trkpt lat="46.45336" lon="-1.68664">
        <ele>18</ele>
        <time>2023-11-14T08:14:27Z</time>
      </trkpt>
      <trkpt lat="46.45348" lon="-1.68743">
        <ele>15</ele>
        <time>2023-11-14T08:15:41Z</time>
      </trkpt>
      <trkpt lat="46.45357" lon="-1.68848">
        <ele>14</ele>
        <time>2023-11-14T08:17:19Z</time>
      </trkpt>
      <trkpt lat="46.45364" lon="-1.68901">
        <ele>14</ele>
        <time>2023-11-14T08:18:08Z</time>
      </trkpt>
      <trkpt lat="46.45375" lon="-1.68953">
        <ele>14</ele>
        <time>2023-11-14T08:18:58Z</time>
      </trkpt>
      <trkpt lat="46.45393" lon="-1.68958">
        <ele>14</ele>
        <time>2023-11-14T08:19:23Z</time>
      </trkpt>
      <trkpt lat="46.45411" lon="-1.68952">
        <ele>15</ele>
        <time>2023-11-14T08:19:47Z</time>
      </trkpt>
      <trkpt lat="46.45426" lon="-1.68937">
        <ele>16</ele>
        <time>2023-11-14T08:20:12Z</time>
      </trkpt>
      <trkpt lat="46.45435" lon="-1.68959">
        <ele>15</ele>
        <time>2023-11-14T08:20:35Z</time>
      </trkpt>
      <trkpt lat="46.45424" lon="-1.6901">
        <ele>13</ele>
        <time>2023-11-14T08:21:24Z</time>
      </trkpt>
      <trkpt lat="46.45411" lon="-1.69027">
        <ele>13</ele>
        <time>2023-11-14T08:21:48Z</time>
      </trkpt>
      <trkpt lat="46.45416" lon="-1.69053">
        <ele>13</ele>
        <time>2023-11-14T08:22:13Z</time>
      </trkpt>
      <trkpt lat="46.45424" lon="-1.69077">
        <ele>13</ele>
        <time>2023-11-14T08:22:37Z</time>
      </trkpt>
      <trkpt lat="46.45427" lon="-1.69156">
        <ele>14</ele>
        <time>2023-11-14T08:23:50Z</time>
      </trkpt>
      <trkpt lat="46.45418" lon="-1.69292">
        <ele>15</ele>
        <time>2023-11-14T08:25:55Z</time>
      </trkpt>
      <trkpt lat="46.45417" lon="-1.69348">
        <ele>15</ele>
        <time>2023-11-14T08:26:47Z</time>
      </trkpt>
      <trkpt lat="46.45421" lon="-1.69374">
        <ele>16</ele>
        <time>2023-11-14T08:27:11Z</time>
      </trkpt>
      <trkpt lat="46.45424" lon="-1.69427">
        <ele>17</ele>
        <time>2023-11-14T08:28:00Z</time>
      </trkpt>
      <trkpt lat="46.45417" lon="-1.69534">
        <ele>19</ele>
        <time>2023-11-14T08:29:39Z</time>
      </trkpt>
      <trkpt lat="46.45419" lon="-1.69561">
        <ele>20</ele>
        <time>2023-11-14T08:30:04Z</time>
      </trkpt>
      <trkpt lat="46.45425" lon="-1.69585">
        <ele>20</ele>
        <time>2023-11-14T08:30:28Z</time>
      </trkpt>
      <trkpt lat="46.45425" lon="-1.69639">
        <ele>21</ele>
        <time>2023-11-14T08:31:17Z</time>
      </trkpt>
      <trkpt lat="46.45446" lon="-1.6974">
        <ele>22</ele>
        <time>2023-11-14T08:32:54Z</time>
      </trkpt>
      <trkpt lat="46.45465" lon="-1.69818">
        <ele>23</ele>
        <time>2023-11-14T08:34:10Z</time>
      </trkpt>
      <trkpt lat="46.45531" lon="-1.70012">
        <ele>24</ele>
        <time>2023-11-14T08:37:29Z</time>
      </trkpt>
      <trkpt lat="46.45587" lon="-1.70211">
        <ele>23</ele>
        <time>2023-11-14T08:40:47Z</time>
      </trkpt>
      <trkpt lat="46.45596" lon="-1.70235">
        <ele>23</ele>
        <time>2023-11-14T08:41:12Z</time>
      </trkpt>
      <trkpt lat="46.45624" lon="-1.70335">
        <ele>23</ele>
        <time>2023-11-14T08:42:51Z</time>
      </trkpt>
      <trkpt lat="46.45629" lon="-1.7036">
        <ele>23</ele>
        <time>2023-11-14T08:43:15Z</time>
      </trkpt>
      <trkpt lat="46.45611" lon="-1.70368">
        <ele>22</ele>
        <time>2023-11-14T08:43:40Z</time>
      </trkpt>
      <trkpt lat="46.45575" lon="-1.70378">
        <ele>22</ele>
        <time>2023-11-14T08:44:29Z</time>
      </trkpt>
      <trkpt lat="46.45558" lon="-1.70387">
        <ele>22</ele>
        <time>2023-11-14T08:44:53Z</time>
      </trkpt>
      <trkpt lat="46.45541" lon="-1.704">
        <ele>22</ele>
        <time>2023-11-14T08:45:19Z</time>
      </trkpt>
      <trkpt lat="46.45534" lon="-1.70454">
        <ele>21</ele>
        <time>2023-11-14T08:46:09Z</time>
      </trkpt>
      <trkpt lat="46.45525" lon="-1.70477">
        <ele>21</ele>
        <time>2023-11-14T08:46:34Z</time>
      </trkpt>
      <trkpt lat="46.45458" lon="-1.7053">
        <ele>22</ele>
        <time>2023-11-14T08:48:16Z</time>
      </trkpt>
      <trkpt lat="46.45441" lon="-1.70539">
        <ele>22</ele>
        <time>2023-11-14T08:48:40Z</time>
      </trkpt>
      <trkpt lat="46.45404" lon="-1.70537">
        <ele>22</ele>
        <time>2023-11-14T08:49:29Z</time>
      </trkpt>
      <trkpt lat="46.45351" lon="-1.70518">
        <ele>21</ele>
        <time>2023-11-14T08:50:42Z</time>
      </trkpt>
      <trkpt lat="46.45314" lon="-1.70514">
        <ele>20</ele>
        <time>2023-11-14T08:51:31Z</time>
      </trkpt>
      <trkpt lat="46.45278" lon="-1.70505">
        <ele>21</ele>
        <time>2023-11-14T08:52:20Z</time>
      </trkpt>
      <trkpt lat="46.4526" lon="-1.70505">
        <ele>22</ele>
        <time>2023-11-14T08:52:44Z</time>
      </trkpt>
      <trkpt lat="46.45225" lon="-1.70486">
        <ele>21</ele>
        <time>2023-11-14T08:53:34Z</time>
      </trkpt>
      <trkpt lat="46.45207" lon="-1.70482">
        <ele>21</ele>
        <time>2023-11-14T08:53:58Z</time>
      </trkpt>
      <trkpt lat="46.45188" lon="-1.70482">
        <ele>21</ele>
        <time>2023-11-14T08:54:24Z</time>
      </trkpt>
      <trkpt lat="46.45133" lon="-1.7047">
        <ele>19</ele>
        <time>2023-11-14T08:55:38Z</time>
      </trkpt>
      <trkpt lat="46.45076" lon="-1.70462">
        <ele>16</ele>
        <time>2023-11-14T08:56:54Z</time>
      </trkpt>
      <trkpt lat="46.45071" lon="-1.70489">
        <ele>15</ele>
        <time>2023-11-14T08:57:20Z</time>
      </trkpt>
      <trkpt lat="46.45078" lon="-1.70569">
        <ele>12</ele>
        <time>2023-11-14T08:58:34Z</time>
      </trkpt>
      <trkpt lat="46.45046" lon="-1.70598">
        <ele>9</ele>
        <time>2023-11-14T08:59:25Z</time>
      </trkpt>
      <trkpt lat="46.45011" lon="-1.70614">
        <ele>5</ele>
        <time>2023-11-14T09:00:14Z</time>
      </trkpt>
      <trkpt lat="46.44997" lon="-1.70595">
        <ele>5</ele>
        <time>2023-11-14T09:00:39Z</time>
      </trkpt>
      <trkpt lat="46.44982" lon="-1.70548">
        <ele>7</ele>
        <time>2023-11-14T09:01:27Z</time>
      </trkpt>
      <trkpt lat="46.4497" lon="-1.70528">
        <ele>7</ele>
        <time>2023-11-14T09:01:51Z</time>
      </trkpt>
      <trkpt lat="46.44952" lon="-1.70531">
        <ele>6</ele>
        <time>2023-11-14T09:02:15Z</time>
      </trkpt>
      <trkpt lat="46.44911" lon="-1.70476">
        <ele>5</ele>
        <time>2023-11-14T09:03:30Z</time>
      </trkpt>
      <trkpt lat="46.44903" lon="-1.70452">
        <ele>6</ele>
        <time>2023-11-14T09:03:54Z</time>
      </trkpt>
      <trkpt lat="46.44896" lon="-1.70399">
        <ele>8</ele>
        <time>2023-11-14T09:04:44Z</time>
      </trkpt>
      <trkpt lat="46.44887" lon="-1.70375">
        <ele>8</ele>
        <time>2023-11-14T09:05:09Z</time>
      </trkpt>
      <trkpt lat="46.44874" lon="-1.70298">
        <ele>8</ele>
        <time>2023-11-14T09:06:22Z</time>
      </trkpt>
      <trkpt lat="46.44864" lon="-1.70275">
        <ele>8</ele>
        <time>2023-11-14T09:06:47Z</time>
      </trkpt>
      <trkpt lat="46.44838" lon="-1.70235">
        <ele>6</ele>
        <time>2023-11-14T09:07:38Z</time>
      </trkpt>
      <trkpt lat="46.44831" lon="-1.70209">
        <ele>6</ele>
        <time>2023-11-14T09:08:03Z</time>
      </trkpt>
      <trkpt lat="46.44836" lon="-1.70183">
        <ele>8</ele>
        <time>2023-11-14T09:08:28Z</time>
      </trkpt>
      <trkpt lat="46.44829" lon="-1.70158">
        <ele>8</ele>
        <time>2023-11-14T09:08:53Z</time>
      </trkpt>
      <trkpt lat="46.44815" lon="-1.70139">
        <ele>7</ele>
        <time>2023-11-14T09:09:18Z</time>
      </trkpt>
      <trkpt lat="46.44804" lon="-1.70117">
        <ele>7</ele>
        <time>2023-11-14T09:09:43Z</time>
      </trkpt>
      <trkpt lat="46.44789" lon="-1.70102">
        <ele>5</ele>
        <time>2023-11-14T09:10:08Z</time>
      </trkpt>
      <trkpt lat="46.4479" lon="-1.70048">
        <ele>6</ele>
        <time>2023-11-14T09:10:57Z</time>
      </trkpt>
      <trkpt lat="46.44784" lon="-1.69995">
        <ele>7</ele>
        <time>2023-11-14T09:11:47Z</time>
      </trkpt>
      <trkpt lat="46.44772" lon="-1.69975">
        <ele>6</ele>
        <time>2023-11-14T09:12:11Z</time>
      </trkpt>
      <trkpt lat="46.44763" lon="-1.69952">
        <ele>5</ele>
        <time>2023-11-14T09:12:35Z</time>
      </trkpt>
      <trkpt lat="46.44746" lon="-1.69874">
        <ele>7</ele>
        <time>2023-11-14T09:13:51Z</time>
      </trkpt>
      <trkpt lat="46.4473" lon="-1.69861">
        <ele>6</ele>
        <time>2023-11-14T09:14:15Z</time>
      </trkpt>
      <trkpt lat="46.44723" lon="-1.69836">
        <ele>6</ele>
        <time>2023-11-14T09:14:40Z</time>
      </trkpt>
      <trkpt lat="46.44722" lon="-1.6981">
        <ele>6</ele>
        <time>2023-11-14T09:15:04Z</time>
      </trkpt>
      <trkpt lat="46.44762" lon="-1.69752">
        <ele>10</ele>
        <time>2023-11-14T09:16:19Z</time>
      </trkpt>
      <trkpt lat="46.44764" lon="-1.69725">
        <ele>9</ele>
        <time>2023-11-14T09:16:44Z</time>
      </trkpt>
      <trkpt lat="46.4476" lon="-1.69699">
        <ele>8</ele>
        <time>2023-11-14T09:17:09Z</time>
      </trkpt>
      <trkpt lat="46.44729" lon="-1.69629">
        <ele>7</ele>
        <time>2023-11-14T09:18:25Z</time>
      </trkpt>
      <trkpt lat="46.44713" lon="-1.69613">
        <ele>6</ele>
        <time>2023-11-14T09:18:51Z</time>
      </trkpt>
      <trkpt lat="46.44674" lon="-1.69557">
        <ele>5</ele>
        <time>2023-11-14T09:20:05Z</time>
      </trkpt>
      <trkpt lat="46.44657" lon="-1.69549">
        <ele>4</ele>
        <time>2023-11-14T09:20:28Z</time>
      </trkpt>
      <trkpt lat="46.44644" lon="-1.69529">
        <ele>5</ele>
        <time>2023-11-14T09:20:54Z</time>
      </trkpt>
      <trkpt lat="46.44609" lon="-1.6951">
        <ele>5</ele>
        <time>2023-11-14T09:21:44Z</time>
      </trkpt>
      <trkpt lat="46.44581" lon="-1.69472">
        <ele>7</ele>
        <time>2023-11-14T09:22:35Z</time>
      </trkpt>
      <trkpt lat="46.44564" lon="-1.69462">
        <ele>7</ele>
        <time>2023-11-14T09:22:59Z</time>
      </trkpt>
      <trkpt lat="46.44546" lon="-1.69467">
        <ele>6</ele>
        <time>2023-11-14T09:23:24Z</time>
      </trkpt>
      <trkpt lat="46.44528" lon="-1.69461">
        <ele>5</ele>
        <time>2023-11-14T09:23:48Z</time>
      </trkpt>
      <trkpt lat="46.44531" lon="-1.69434">
        <ele>7</ele>
        <time>2023-11-14T09:24:13Z</time>
      </trkpt>
      <trkpt lat="46.44513" lon="-1.69435">
        <ele>6</ele>
        <time>2023-11-14T09:24:37Z</time>
      </trkpt>
      <trkpt lat="46.44507" lon="-1.69409">
        <ele>7</ele>
        <time>2023-11-14T09:25:03Z</time>
      </trkpt>
      <trkpt lat="46.44496" lon="-1.69387">
        <ele>7</ele>
        <time>2023-11-14T09:25:28Z</time>
      </trkpt>
      <trkpt lat="46.44489" lon="-1.69363">
        <ele>8</ele>
        <time>2023-11-14T09:25:52Z</time>
      </trkpt>
      <trkpt lat="46.44486" lon="-1.69336">
        <ele>8</ele>
        <time>2023-11-14T09:26:17Z</time>
      </trkpt>
      <trkpt lat="46.44476" lon="-1.69313">
        <ele>8</ele>
        <time>2023-11-14T09:26:42Z</time>
      </trkpt>
      <trkpt lat="46.44461" lon="-1.69265">
        <ele>8</ele>
        <time>2023-11-14T09:27:30Z</time>
      </trkpt>
      <trkpt lat="46.4444" lon="-1.69221">
        <ele>8</ele>
        <time>2023-11-14T09:28:19Z</time>
      </trkpt>
      <trkpt lat="46.44427" lon="-1.692">
        <ele>8</ele>
        <time>2023-11-14T09:28:45Z</time>
      </trkpt>
      <trkpt lat="46.44397" lon="-1.69171">
        <ele>8</ele>
        <time>2023-11-14T09:29:33Z</time>
      </trkpt>
      <trkpt lat="46.44382" lon="-1.69153">
        <ele>7</ele>
        <time>2023-11-14T09:29:59Z</time>
      </trkpt>
      <trkpt lat="46.44371" lon="-1.69132">
        <ele>7</ele>
        <time>2023-11-14T09:30:24Z</time>
      </trkpt>
      <trkpt lat="46.44363" lon="-1.69107">
        <ele>7</ele>
        <time>2023-11-14T09:30:49Z</time>
      </trkpt>
      <trkpt lat="46.4436" lon="-1.6908">
        <ele>8</ele>
        <time>2023-11-14T09:31:14Z</time>
      </trkpt>
      <trkpt lat="46.44344" lon="-1.69029">
        <ele>8</ele>
        <time>2023-11-14T09:32:06Z</time>
      </trkpt>
      <trkpt lat="46.44334" lon="-1.69007">
        <ele>8</ele>
        <time>2023-11-14T09:32:30Z</time>
      </trkpt>
      <trkpt lat="46.44305" lon="-1.68973">
        <ele>7</ele>
        <time>2023-11-14T09:33:20Z</time>
      </trkpt>
      <trkpt lat="46.44293" lon="-1.68953">
        <ele>7</ele>
        <time>2023-11-14T09:33:44Z</time>
      </trkpt>
      <trkpt lat="46.44274" lon="-1.68906">
        <ele>6</ele>
        <time>2023-11-14T09:34:34Z</time>
      </trkpt>
      <trkpt lat="46.44274" lon="-1.6888">
        <ele>6</ele>
        <time>2023-11-14T09:34:58Z</time>
      </trkpt>
      <trkpt lat="46.44279" lon="-1.68855">
        <ele>7</ele>
        <time>2023-11-14T09:35:22Z</time>
      </trkpt>
      <trkpt lat="46.44288" lon="-1.68831">
        <ele>9</ele>
        <time>2023-11-14T09:35:47Z</time>
      </trkpt>
      <trkpt lat="46.44293" lon="-1.68778">
        <ele>10</ele>
        <time>2023-11-14T09:36:36Z</time>
      </trkpt>
      <trkpt lat="46.44298" lon="-1.68752">
        <ele>11</ele>
        <time>2023-11-14T09:37:01Z</time>
      </trkpt>
      <trkpt lat="46.44295" lon="-1.68726">
        <ele>12</ele>
        <time>2023-11-14T09:37:25Z</time>
      </trkpt>
      <trkpt lat="46.44265" lon="-1.68659">
        <ele>9</ele>
        <time>2023-11-14T09:38:39Z</time>
      </trkpt>
      <trkpt lat="46.44259" lon="-1.68605">
        <ele>9</ele>
        <time>2023-11-14T09:39:29Z</time>
      </trkpt>
      <trkpt lat="46.44261" lon="-1.68552">
        <ele>11</ele>
        <time>2023-11-14T09:40:18Z</time>
      </trkpt>
      <trkpt lat="46.44245" lon="-1.68539">
        <ele>10</ele>
        <time>2023-11-14T09:40:43Z</time>
      </trkpt>
      <trkpt lat="46.44231" lon="-1.68522">
        <ele>8</ele>
        <time>2023-11-14T09:41:07Z</time>
      </trkpt>
      <trkpt lat="46.44217" lon="-1.68446">
        <ele>9</ele>
        <time>2023-11-14T09:42:19Z</time>
      </trkpt>
      <trkpt lat="46.44217" lon="-1.68419">
        <ele>9</ele>
        <time>2023-11-14T09:42:44Z</time>
      </trkpt>
      <trkpt lat="46.44212" lon="-1.68392">
        <ele>9</ele>
        <time>2023-11-14T09:43:10Z</time>
      </trkpt>
      <trkpt lat="46.44215" lon="-1.68338">
        <ele>10</ele>
        <time>2023-11-14T09:44:00Z</time>
      </trkpt>
      <trkpt lat="46.44213" lon="-1.6831">
        <ele>10</ele>
        <time>2023-11-14T09:44:25Z</time>
      </trkpt>
      <trkpt lat="46.44199" lon="-1.68292">
        <ele>8</ele>
        <time>2023-11-14T09:44:50Z</time>
      </trkpt>
      <trkpt lat="46.44177" lon="-1.6825">
        <ele>6</ele>
        <time>2023-11-14T09:45:39Z</time>
      </trkpt>
      <trkpt lat="46.44171" lon="-1.68196">
        <ele>7</ele>
        <time>2023-11-14T09:46:29Z</time>
      </trkpt>
      <trkpt lat="46.44163" lon="-1.68172">
        <ele>8</ele>
        <time>2023-11-14T09:46:54Z</time>
      </trkpt>
      <trkpt lat="46.44162" lon="-1.68145">
        <ele>8</ele>
        <time>2023-11-14T09:47:19Z</time>
      </trkpt>
      <trkpt lat="46.44153" lon="-1.68093">
        <ele>7</ele>
        <time>2023-11-14T09:48:08Z</time>
      </trkpt>
      <trkpt lat="46.44157" lon="-1.68067">
        <ele>8</ele>
        <time>2023-11-14T09:48:32Z</time>
      </trkpt>
      <trkpt lat="46.44148" lon="-1.68044">
        <ele>8</ele>
        <time>2023-11-14T09:48:57Z</time>
      </trkpt>
      <trkpt lat="46.44135" lon="-1.68023">
        <ele>6</ele>
        <time>2023-11-14T09:49:23Z</time>
      </trkpt>
      <trkpt lat="46.441" lon="-1.68003">
        <ele>2</ele>
        <time>2023-11-14T09:50:13Z</time>
      </trkpt>
      <trkpt lat="46.44095" lon="-1.67978">
        <ele>2</ele>
        <time>2023-11-14T09:50:37Z</time>
      </trkpt>
      <trkpt lat="46.44097" lon="-1.67951">
        <ele>2</ele>
        <time>2023-11-14T09:51:02Z</time>
      </trkpt>
      <trkpt lat="46.44095" lon="-1.67897">
        <ele>2</ele>
        <time>2023-11-14T09:51:52Z</time>
      </trkpt>
      <trkpt lat="46.44082" lon="-1.67818">
        <ele>1</ele>
        <time>2023-11-14T09:53:06Z</time>
      </trkpt>
      <trkpt lat="46.44083" lon="-1.67709">
        <ele>4</ele>
        <time>2023-11-14T09:54:46Z</time>
      </trkpt>
      <trkpt lat="46.44081" lon="-1.67682">
        <ele>4</ele>
        <time>2023-11-14T09:55:11Z</time>
      </trkpt>
      <trkpt lat="46.44069" lon="-1.67661">
        <ele>4</ele>
        <time>2023-11-14T09:55:37Z</time>
      </trkpt>
      <trkpt lat="46.44061" lon="-1.67637">
        <ele>5</ele>
        <time>2023-11-14T09:56:01Z</time>
      </trkpt>
    </trkseg>
  </trk>
</gpx>